Time;durP1;ratioP1;P1;durP2;ratioP2;P2;SDS_P1;SDS_P2;PMS_P1;PMS_P2;Temp;Humidity;BMP_temperature;BMP_pressure;BME280_temperature;BME280_humidity;BME280_pressure;Samples;Min_cycle;Max_cycle;Signal;HPM_P1;HPM_P2
2021/04/03 00:00:51;;;;;;;46.40;4.43;;;9.80;74.70;;;;;;5071896;28;20086;-68
2021/04/03 00:03:18;;;;;;;19.00;3.25;;;9.80;74.90;;;;;;5072557;28;20017;-68
2021/04/03 00:05:44;;;;;;;23.42;4.07;;;9.80;74.80;;;;;;5072291;28;20051;-68
2021/04/03 00:08:11;;;;;;;19.02;3.42;;;9.80;74.40;;;;;;5071886;28;20060;-68
2021/04/03 00:10:38;;;;;;;11.85;2.20;;;9.80;74.60;;;;;;5072415;28;20045;-69
2021/04/03 00:13:04;;;;;;;22.83;3.40;;;9.80;74.80;;;;;;5072006;28;20052;-68
2021/04/03 00:15:30;;;;;;;31.40;4.93;;;9.80;74.80;;;;;;5071843;28;20083;-68
2021/04/03 00:17:56;;;;;;;39.67;5.38;;;9.80;74.70;;;;;;5072315;28;20432;-69
2021/04/03 00:20:26;;;;;;;29.25;4.00;;;9.80;74.60;;;;;;5072064;28;20115;-68
2021/04/03 00:22:51;;;;;;;26.77;4.30;;;9.80;74.50;;;;;;5074597;28;20094;-69
2021/04/03 00:25:17;;;;;;;30.65;4.43;;;9.80;74.40;;;;;;5075993;28;20388;-69
2021/04/03 00:27:44;;;;;;;26.58;5.78;;;9.80;74.40;;;;;;5066171;28;20032;-69
2021/04/03 00:30:20;;;;;;;43.00;5.03;;;9.80;74.50;;;;;;5071600;28;20032;-68
2021/04/03 00:32:50;;;;;;;30.30;4.22;;;9.80;74.30;;;;;;5076172;28;20029;-68
2021/04/03 00:35:19;;;;;;;26.35;4.30;;;9.80;74.40;;;;;;5075184;28;20036;-69
2021/04/03 00:37:44;;;;;;;39.58;5.22;;;9.80;74.30;;;;;;5075859;28;20028;-68
2021/04/03 00:40:41;;;;;;;31.65;4.25;;;9.80;74.20;;;;;;5074014;28;20403;-69
2021/04/03 00:43:13;;;;;;;31.73;5.10;;;9.80;74.30;;;;;;5061387;28;20025;-68
2021/04/03 00:45:40;;;;;;;35.60;5.85;;;9.80;74.30;;;;;;5042324;28;20056;-68
2021/04/03 00:48:07;;;;;;;36.90;5.13;;;9.80;74.30;;;;;;5051799;28;20032;-68
2021/04/03 00:50:38;;;;;;;38.58;6.28;;;9.80;74.30;;;;;;5037115;28;20126;-68
2021/04/03 00:53:08;;;;;;;35.67;5.70;;;9.80;74.20;;;;;;5037967;28;20049;-68
2021/04/03 00:55:36;;;;;;;37.90;6.95;;;9.80;74.20;;;;;;5060902;28;20033;-68
2021/04/03 00:58:01;;;;;;;37.13;4.57;;;9.80;74.20;;;;;;5063464;28;20033;-68
2021/04/03 01:00:29;;;;;;;22.63;3.60;;;9.70;74.20;;;;;;5037584;28;20150;-68
2021/04/03 01:02:56;;;;;;;27.92;4.75;;;9.70;74.30;;;;;;5036892;28;20178;-68
2021/04/03 01:05:26;;;;;;;32.33;6.13;;;9.70;74.20;;;;;;5055472;28;20132;-68
2021/04/03 01:07:57;;;;;;;30.98;5.30;;;9.70;74.30;;;;;;5055641;28;20461;-68
2021/04/03 01:10:37;;;;;;;40.65;5.47;;;9.70;74.30;;;;;;5036476;28;20397;-68
2021/04/03 01:13:29;;;;;;;37.28;4.07;;;9.70;74.30;;;;;;5064309;28;20055;-68
2021/04/03 01:16:19;;;;;;;29.48;4.47;;;9.70;74.40;;;;;;5038316;28;20052;-68
2021/04/03 01:19:22;;;;;;;49.08;4.55;;;9.60;74.30;;;;;;5054699;28;20037;-68
2021/04/03 01:22:15;;;;;;;32.72;4.68;;;9.60;74.40;;;;;;5055067;28;20065;-68
2021/04/03 01:25:10;;;;;;;46.05;5.72;;;9.60;74.50;;;;;;5054555;28;20045;-68
2021/04/03 01:27:52;;;;;;;35.55;5.53;;;9.60;74.50;;;;;;5054911;28;20388;-68
2021/04/03 01:30:22;;;;;;;25.85;4.47;;;9.50;74.50;;;;;;5037124;28;20102;-68
2021/04/03 01:33:09;;;;;;;37.55;5.57;;;9.60;74.50;;;;;;5035860;28;20021;-68
2021/04/03 01:35:57;;;;;;;32.15;4.40;;;9.50;74.50;;;;;;5036974;28;20059;-68
2021/04/03 01:38:28;;;;;;;39.75;5.20;;;9.60;74.60;;;;;;5036203;28;20520;-68
2021/04/03 01:40:56;;;;;;;42.20;4.88;;;9.50;74.50;;;;;;5036696;28;20492;-70
2021/04/03 01:43:28;;;;;;;33.17;5.28;;;9.50;74.50;;;;;;5054923;28;20027;-68
2021/04/03 01:45:55;;;;;;;48.92;5.32;;;9.50;74.50;;;;;;5065846;28;20048;-68
2021/04/03 01:48:23;;;;;;;30.67;5.03;;;9.50;74.40;;;;;;5088855;28;20100;-68
2021/04/03 01:50:50;;;;;;;41.20;5.15;;;9.50;74.30;;;;;;5073182;28;20032;-68
2021/04/03 01:53:20;;;;;;;34.58;4.43;;;9.50;74.30;;;;;;5073902;28;20032;-68
2021/04/03 01:55:50;;;;;;;32.97;4.85;;;9.50;74.30;;;;;;5073358;28;20097;-68
2021/04/03 01:58:17;;;;;;;40.40;5.40;;;9.50;74.30;;;;;;5074231;28;20029;-68
2021/04/03 02:00:45;;;;;;;41.67;5.70;;;9.50;74.30;;;;;;5072459;28;20056;-68
2021/04/03 02:03:11;;;;;;;30.70;4.97;;;9.50;74.30;;;;;;5074266;28;20384;-68
2021/04/03 02:05:38;;;;;;;39.10;5.55;;;9.50;74.30;;;;;;5074215;28;20063;-68
2021/04/03 02:08:41;;;;;;;33.20;4.10;;;9.40;74.20;;;;;;5029733;28;20136;-68
2021/04/03 02:11:20;;;;;;;39.88;5.03;;;9.40;74.10;;;;;;5074788;28;20131;-68
2021/04/03 02:13:49;;;;;;;31.85;6.03;;;9.40;74.20;;;;;;5073268;28;20029;-68
2021/04/03 02:16:17;;;;;;;35.92;4.95;;;9.40;74.20;;;;;;5072854;28;20031;-69
2021/04/03 02:18:43;;;;;;;26.88;3.88;;;9.40;74.20;;;;;;5074372;28;20032;-68
2021/04/03 02:21:10;;;;;;;26.65;5.00;;;9.40;74.20;;;;;;5073528;28;20073;-68
2021/04/03 02:23:42;;;;;;;33.92;5.30;;;9.40;74.40;;;;;;5072583;28;20048;-69
2021/04/03 02:26:10;;;;;;;44.50;6.45;;;9.30;74.50;;;;;;5072567;28;20036;-68
2021/04/03 02:28:37;;;;;;;43.63;5.00;;;9.30;74.60;;;;;;5073424;28;20033;-68
2021/04/03 02:31:03;;;;;;;41.78;5.40;;;9.30;74.70;;;;;;5072495;28;20051;-68
2021/04/03 02:33:30;;;;;;;20.42;2.92;;;9.30;74.80;;;;;;5072685;28;20025;-67
2021/04/03 02:35:57;;;;;;;26.88;4.47;;;9.20;74.90;;;;;;5075728;28;20035;-68
2021/04/03 02:38:23;;;;;;;33.47;5.10;;;9.20;75.00;;;;;;5082307;28;20028;-68
2021/04/03 02:40:57;;;;;;;35.85;5.45;;;9.20;75.00;;;;;;5072193;28;20044;-68
2021/04/03 02:43:54;;;;;;;35.45;4.80;;;9.20;75.10;;;;;;5072876;28;20079;-68
2021/04/03 02:46:20;;;;;;;29.42;5.15;;;9.10;75.10;;;;;;5075045;28;20036;-68
2021/04/03 02:48:50;;;;;;;38.55;4.28;;;9.10;75.10;;;;;;5071587;28;20039;-68
2021/04/03 02:51:32;;;;;;;39.05;4.97;;;9.10;75.20;;;;;;5071873;28;20031;-68
2021/04/03 02:54:00;;;;;;;40.70;5.95;;;9.00;75.20;;;;;;5072417;28;20043;-68
2021/04/03 02:56:28;;;;;;;33.35;5.32;;;9.00;75.20;;;;;;5072587;28;20029;-68
2021/04/03 02:58:56;;;;;;;39.15;5.78;;;9.10;75.30;;;;;;5072027;28;20527;-68
2021/04/03 03:01:23;;;;;;;30.92;3.58;;;9.00;75.40;;;;;;5072040;28;20397;-68
2021/04/03 03:03:57;;;;;;;45.05;5.88;;;9.00;75.50;;;;;;5072574;28;20040;-68
2021/04/03 03:06:30;;;;;;;21.25;3.50;;;9.00;75.50;;;;;;5073169;28;20035;-68
2021/04/03 03:09:00;;;;;;;18.98;3.33;;;8.90;75.70;;;;;;5072198;28;20035;-68
2021/04/03 03:11:27;;;;;;;26.40;5.10;;;8.90;75.80;;;;;;5071195;28;20028;-68
2021/04/03 03:13:58;;;;;;;37.03;5.03;;;8.90;75.90;;;;;;5071679;28;20108;-68
2021/04/03 03:16:26;;;;;;;33.53;4.47;;;8.90;76.20;;;;;;5071350;28;20036;-68
2021/04/03 03:18:53;;;;;;;41.30;5.65;;;8.80;76.30;;;;;;5073078;28;20448;-68
2021/04/03 03:21:22;;;;;;;39.42;6.03;;;8.80;76.50;;;;;;5065853;28;20361;-68
2021/04/03 03:23:48;;;;;;;30.45;6.15;;;8.80;76.60;;;;;;5075780;28;20824;-68
2021/04/03 03:26:14;;;;;;;32.63;5.05;;;8.80;76.60;;;;;;5072858;28;20064;-68
2021/04/03 03:28:42;;;;;;;37.20;5.95;;;8.80;76.70;;;;;;5072819;28;20051;-68
2021/04/03 03:31:09;;;;;;;23.30;3.80;;;8.70;76.70;;;;;;5072390;28;20039;-68
2021/04/03 03:33:35;;;;;;;37.45;5.53;;;8.70;76.80;;;;;;5071581;28;20040;-68
2021/04/03 03:36:07;;;;;;;27.65;4.85;;;8.70;76.80;;;;;;5072764;28;20047;-68
2021/04/03 03:38:33;;;;;;;39.58;5.85;;;8.70;76.90;;;;;;5070720;28;20031;-68
2021/04/03 03:41:00;;;;;;;33.88;5.10;;;8.70;77.10;;;;;;5072653;28;20032;-68
2021/04/03 03:43:28;;;;;;;43.22;6.70;;;8.70;77.30;;;;;;5072610;28;20508;-68
2021/04/03 03:45:56;;;;;;;37.95;5.00;;;8.70;77.50;;;;;;5070150;28;20053;-68
2021/04/03 03:48:22;;;;;;;39.08;5.30;;;8.60;77.40;;;;;;5085495;28;20111;-68
2021/04/03 03:50:48;;;;;;;35.33;5.05;;;8.70;77.60;;;;;;5071272;28;20135;-68
2021/04/03 03:53:18;;;;;;;43.03;6.53;;;8.70;77.90;;;;;;5070534;28;20032;-68
2021/04/03 03:55:44;;;;;;;45.53;6.90;;;8.60;78.20;;;;;;5071272;28;20028;-68
2021/04/03 03:58:16;;;;;;;34.58;5.20;;;8.60;78.40;;;;;;5072161;28;20472;-68
2021/04/03 04:00:48;;;;;;;31.13;5.15;;;8.60;78.60;;;;;;5072044;28;20056;-68
2021/04/03 04:03:16;;;;;;;49.47;6.95;;;8.50;78.60;;;;;;5072270;28;20541;-68
2021/04/03 04:05:47;;;;;;;51.78;6.72;;;8.60;78.80;;;;;;5071875;28;20086;-67
2021/04/03 04:08:17;;;;;;;43.85;4.75;;;8.50;78.80;;;;;;5072245;28;20113;-68
2021/04/03 04:10:43;;;;;;;39.00;5.85;;;8.50;78.80;;;;;;5071318;28;20039;-68
2021/04/03 04:13:12;;;;;;;36.10;5.38;;;8.60;79.00;;;;;;5071571;28;20037;-68
2021/04/03 04:15:38;;;;;;;38.25;6.53;;;8.60;79.00;;;;;;5070987;28;20131;-68
2021/04/03 04:18:05;;;;;;;29.02;4.85;;;8.60;79.10;;;;;;5071068;28;20063;-68
2021/04/03 04:20:32;;;;;;;25.88;4.40;;;8.60;79.00;;;;;;5070178;28;20429;-68
2021/04/03 04:23:01;;;;;;;27.83;4.57;;;8.60;78.90;;;;;;5071100;28;20056;-68
2021/04/03 04:25:34;;;;;;;25.50;4.22;;;8.60;78.90;;;;;;5072320;28;20048;-68
2021/04/03 04:28:02;;;;;;;34.70;5.10;;;8.60;78.90;;;;;;5070317;28;20024;-68
2021/04/03 04:30:28;;;;;;;31.08;4.80;;;8.60;78.90;;;;;;5070824;28;20496;-68
2021/04/03 04:33:03;;;;;;;37.20;6.70;;;8.60;78.90;;;;;;5071004;28;20036;-68
2021/04/03 04:35:30;;;;;;;30.45;4.28;;;8.60;79.00;;;;;;5070034;28;20050;-68
2021/04/03 04:37:59;;;;;;;23.90;4.25;;;8.60;79.00;;;;;;5072341;28;20025;-68
2021/04/03 04:40:30;;;;;;;49.63;5.57;;;8.60;78.90;;;;;;5070875;28;20028;-68
2021/04/03 04:42:58;;;;;;;28.80;4.97;;;8.60;79.00;;;;;;5069945;28;20021;-68
2021/04/03 04:45:27;;;;;;;33.35;5.03;;;8.50;79.00;;;;;;5061003;28;20136;-68
2021/04/03 04:47:53;;;;;;;42.70;6.82;;;8.60;79.10;;;;;;5047064;28;20116;-68
2021/04/03 04:50:20;;;;;;;51.47;6.22;;;8.50;79.40;;;;;;5052017;28;20040;-68
2021/04/03 04:52:48;;;;;;;39.92;5.70;;;8.50;79.50;;;;;;5034104;28;20032;-68
2021/04/03 04:55:15;;;;;;;32.30;5.22;;;8.60;79.50;;;;;;5051116;28;20028;-68
2021/04/03 04:57:44;;;;;;;57.38;8.75;;;8.50;79.50;;;;;;5034038;28;20028;-68
2021/04/03 05:00:16;;;;;;;33.42;5.85;;;8.50;79.50;;;;;;5033886;28;20032;-68
2021/04/03 05:02:55;;;;;;;36.05;5.60;;;8.50;79.50;;;;;;5033346;28;20053;-68
2021/04/03 05:05:20;;;;;;;19.90;4.40;;;8.50;79.50;;;;;;5051728;28;20041;-68
2021/04/03 05:07:46;;;;;;;38.58;5.57;;;8.50;80.10;;;;;;5051995;28;20044;-69
2021/04/03 05:10:12;;;;;;;32.25;5.53;;;8.50;79.60;;;;;;5054266;28;20036;-69
2021/04/03 05:12:38;;;;;;;24.80;5.28;;;8.50;79.70;;;;;;5055327;28;20033;-68
2021/04/03 05:15:05;;;;;;;38.97;6.03;;;8.50;79.90;;;;;;5055135;28;20032;-68
2021/04/03 05:17:31;;;;;;;27.13;4.15;;;8.50;80.00;;;;;;5054803;28;20025;-68
2021/04/03 05:19:56;;;;;;;38.88;5.22;;;8.40;80.00;;;;;;5055360;28;20029;-68
2021/04/03 05:22:22;;;;;;;43.80;5.05;;;8.40;80.10;;;;;;5054831;28;20544;-68
2021/04/03 05:24:48;;;;;;;47.35;6.80;;;8.40;80.20;;;;;;5054412;28;20037;-68
2021/04/03 05:27:14;;;;;;;51.92;6.20;;;8.40;80.30;;;;;;5054935;28;20033;-68
2021/04/03 05:29:39;;;;;;;40.97;7.30;;;8.40;80.30;;;;;;5055082;28;20036;-68
2021/04/03 05:32:06;;;;;;;40.78;5.18;;;8.40;80.30;;;;;;5054077;28;20029;-68
2021/04/03 05:34:32;;;;;;;36.85;4.82;;;8.40;80.30;;;;;;5055158;28;20131;-68
2021/04/03 05:36:58;;;;;;;35.40;5.55;;;8.40;80.20;;;;;;5055074;28;20096;-68
2021/04/03 05:39:24;;;;;;;33.63;5.43;;;8.40;80.30;;;;;;5057746;28;20505;-68
2021/04/03 05:41:50;;;;;;;43.40;6.93;;;8.40;80.40;;;;;;5056384;28;20035;-69
2021/04/03 05:44:20;;;;;;;37.88;5.53;;;8.40;80.60;;;;;;5072874;28;20033;-68
2021/04/03 05:46:48;;;;;;;30.17;5.78;;;8.40;80.50;;;;;;5074580;28;20066;-69
2021/04/03 05:49:14;;;;;;;38.15;5.88;;;8.50;80.80;;;;;;5063192;28;20032;-68
2021/04/03 05:51:39;;;;;;;46.35;5.88;;;8.50;80.70;;;;;;5053901;28;20029;-71
2021/04/03 05:54:06;;;;;;;31.55;4.45;;;8.50;80.70;;;;;;5063660;28;20040;-68
2021/04/03 05:56:32;;;;;;;45.72;6.70;;;8.50;80.60;;;;;;5072785;28;20066;-68
2021/04/03 05:58:57;;;;;;;34.22;6.35;;;8.50;80.70;;;;;;5061308;28;20031;-68
2021/04/03 06:01:23;;;;;;;41.45;5.93;;;8.50;80.80;;;;;;5074390;28;20036;-68
2021/04/03 06:03:49;;;;;;;47.90;5.88;;;8.60;80.80;;;;;;5074478;28;20078;-66
2021/04/03 06:06:16;;;;;;;38.58;5.28;;;8.60;80.80;;;;;;5055430;28;20039;-67
2021/04/03 06:08:42;;;;;;;30.77;4.82;;;8.60;80.70;;;;;;5056380;28;20020;-68
2021/04/03 06:11:19;;;;;;;42.33;5.05;;;8.60;80.80;;;;;;5074033;28;20036;-68
2021/04/03 06:13:57;;;;;;;24.50;3.05;;;8.70;80.90;;;;;;5073745;28;20414;-67
2021/04/03 06:16:29;;;;;;;49.53;5.43;;;8.70;80.70;;;;;;5074175;28;20081;-67
2021/04/03 06:19:19;;;;;;;26.85;3.67;;;8.60;80.70;;;;;;5073507;28;20028;-67
2021/04/03 06:22:01;;;;;;;51.15;5.97;;;8.60;80.70;;;;;;5060871;28;20031;-67
2021/04/03 06:24:35;;;;;;;32.92;4.88;;;8.70;80.80;;;;;;5073854;28;20056;-66
2021/04/03 06:27:07;;;;;;;;;;;8.60;80.70;;;;;;5065827;28;20045;-67
2021/04/03 06:29:47;;;;;;;39.75;5.15;;;8.60;80.70;;;;;;5068545;28;19951;-67
2021/04/03 06:32:19;;;;;;;44.60;6.53;;;8.60;80.80;;;;;;5072442;28;20025;-67
2021/04/03 06:34:46;;;;;;;26.35;5.28;;;8.60;81.50;;;;;;5072916;28;20033;-67
2021/04/03 06:37:12;;;;;;;51.95;6.05;;;8.60;81.30;;;;;;5073338;28;20534;-67
2021/04/03 06:39:51;;;;;;;35.13;5.07;;;8.60;81.70;;;;;;5073461;28;20032;-67
2021/04/03 06:42:39;;;;;;;34.70;5.25;;;8.60;81.70;;;;;;5069544;28;20040;-67
2021/04/03 06:45:24;;;;;;;51.80;6.70;;;8.60;81.90;;;;;;5073220;28;20052;-67
2021/04/03 06:48:02;;;;;;;43.10;6.38;;;8.70;82.00;;;;;;5065920;28;20039;-68
2021/04/03 06:50:33;;;;;;;22.33;3.95;;;8.70;82.00;;;;;;5070696;28;20032;-68
2021/04/03 06:53:10;;;;;;;21.33;4.10;;;8.70;82.00;;;;;;5072715;28;20032;-68
2021/04/03 06:55:37;;;;;;;37.88;6.60;;;8.70;82.00;;;;;;5070843;28;20459;-68
2021/04/03 06:58:04;;;;;;;36.92;5.93;;;8.70;82.20;;;;;;5072724;28;20028;-68
2021/04/03 07:00:32;;;;;;;29.88;4.68;;;8.70;82.20;;;;;;5073102;28;20448;-68
2021/04/03 07:03:16;;;;;;;24.00;3.85;;;8.70;82.10;;;;;;5072090;28;20056;-67
2021/04/03 07:05:44;;;;;;;37.55;4.85;;;8.70;82.10;;;;;;5072417;28;20032;-68
2021/04/03 07:08:10;;;;;;;21.95;5.18;;;8.70;82.00;;;;;;5072804;28;20053;-67
2021/04/03 07:10:37;;;;;;;34.38;5.72;;;8.80;82.00;;;;;;5071909;28;20139;-67
2021/04/03 07:13:04;;;;;;;36.05;5.40;;;8.80;82.10;;;;;;5072578;28;20136;-67
2021/04/03 07:15:30;;;;;;;32.83;5.22;;;8.80;82.00;;;;;;5072397;28;20390;-67
2021/04/03 07:17:57;;;;;;;33.00;4.72;;;8.80;82.00;;;;;;5071814;28;20031;-67
2021/04/03 07:20:26;;;;;;;39.42;4.38;;;8.80;82.00;;;;;;5072447;28;20103;-67
2021/04/03 07:22:56;;;;;;;31.80;5.03;;;8.80;81.90;;;;;;5071625;28;20395;-67
2021/04/03 07:25:25;;;;;;;34.50;5.00;;;8.90;82.50;;;;;;5072310;28;20075;-68
2021/04/03 07:27:51;;;;;;;33.42;5.53;;;8.90;81.90;;;;;;5054445;28;20032;-68
2021/04/03 07:30:35;;;;;;;45.17;5.60;;;8.90;81.90;;;;;;5071535;28;20028;-67
2021/04/03 07:33:15;;;;;;;35.42;4.55;;;8.90;81.90;;;;;;5071485;28;20032;-68
2021/04/03 07:35:53;;;;;;;45.03;6.88;;;8.90;82.00;;;;;;5054177;28;20500;-68
2021/04/03 07:38:37;;;;;;;37.13;6.70;;;9.00;82.20;;;;;;5071478;28;20043;-70
2021/04/03 07:41:11;;;;;;;34.50;4.70;;;9.00;82.20;;;;;;5054191;28;20028;-69
2021/04/03 07:43:41;;;;;;;26.00;4.15;;;9.00;82.10;;;;;;5072158;28;20357;-72
2021/04/03 07:46:11;;;;;;;24.85;4.10;;;9.00;82.00;;;;;;5054743;28;20515;-69
2021/04/03 07:48:50;;;;;;;30.63;5.25;;;9.00;81.90;;;;;;5034005;28;20024;-69
2021/04/03 07:51:35;;;;;;;41.42;5.70;;;9.10;81.80;;;;;;5050639;28;20488;-72
2021/04/03 07:54:03;;;;;;;37.28;7.07;;;9.10;81.70;;;;;;5056512;28;20060;-68
2021/04/03 07:56:46;;;;;;;47.97;5.90;;;9.20;81.70;;;;;;5054736;28;20112;-71
2021/04/03 07:59:12;;;;;;;44.08;8.88;;;9.20;81.90;;;;;;5051642;28;20082;-69
2021/04/03 08:01:41;;;;;;;49.60;6.90;;;9.20;81.70;;;;;;5052821;28;20041;-73
2021/04/03 08:04:09;;;;;;;21.73;3.08;;;9.30;81.70;;;;;;5059111;28;20032;-73
2021/04/03 08:06:37;;;;;;;27.92;4.68;;;9.40;81.70;;;;;;5071273;28;20380;-68
2021/04/03 08:09:05;;;;;;;23.95;2.90;;;9.40;81.50;;;;;;5072496;28;20027;-68
2021/04/03 08:11:31;;;;;;;24.38;3.72;;;9.40;81.30;;;;;;5072292;28;20094;-68
2021/04/03 08:13:58;;;;;;;34.45;4.22;;;9.40;81.00;;;;;;5071417;28;20071;-68
2021/04/03 08:16:27;;;;;;;26.55;3.65;;;9.60;80.90;;;;;;5071928;28;20107;-70
2021/04/03 08:18:55;;;;;;;26.83;3.40;;;9.60;80.50;;;;;;5053339;28;20025;-70
2021/04/03 08:21:22;;;;;;;32.60;6.18;;;9.70;80.30;;;;;;5072151;28;20024;-69
2021/04/03 08:23:50;;;;;;;28.20;4.68;;;9.80;80.10;;;;;;5071801;28;20063;-68
2021/04/03 08:26:33;;;;;;;43.30;4.75;;;9.90;79.80;;;;;;5069751;28;20036;-69
2021/04/03 08:28:59;;;;;;;41.75;4.15;;;9.90;79.50;;;;;;5071507;28;20033;-68
2021/04/03 08:31:27;;;;;;;27.45;3.67;;;9.90;79.20;;;;;;5071426;28;20496;-68
2021/04/03 08:33:56;;;;;;;34.20;4.60;;;10.00;79.10;;;;;;5053081;28;20110;-72
2021/04/03 08:36:31;;;;;;;25.40;4.15;;;10.00;79.00;;;;;;5071934;28;20472;-72
2021/04/03 08:39:01;;;;;;;26.98;4.85;;;10.10;78.90;;;;;;5071478;28;20112;-81
2021/04/03 08:41:28;;;;;;;25.35;3.25;;;10.10;78.70;;;;;;5068252;28;20474;-70
2021/04/03 08:43:56;;;;;;;28.92;4.25;;;10.10;78.50;;;;;;5072947;28;20033;-70
2021/04/03 08:46:24;;;;;;;30.65;4.85;;;10.10;78.20;;;;;;5073124;28;20049;-78
2021/04/03 08:48:58;;;;;;;46.53;7.03;;;10.20;78.10;;;;;;5055291;28;20094;-79
2021/04/03 08:51:27;;;;;;;34.60;4.93;;;10.20;77.90;;;;;;5057169;28;20086;-68
2021/04/03 08:53:59;;;;;;;21.02;3.97;;;10.30;78.00;;;;;;5067194;28;20049;-68
2021/04/03 08:56:36;;;;;;;21.48;3.72;;;10.30;78.00;;;;;;5065624;28;20039;-68
2021/04/03 08:59:07;;;;;;;29.35;3.08;;;10.30;77.80;;;;;;5071711;28;20448;-67
2021/04/03 09:01:36;;;;;;;24.83;3.72;;;10.30;77.40;;;;;;5070877;28;20043;-72
2021/04/03 09:04:09;;;;;;;11.82;3.10;;;10.40;77.60;;;;;;5039912;28;20031;-68
2021/04/03 09:06:54;;;;;;;29.27;3.72;;;10.40;77.30;;;;;;5056392;28;20041;-68
2021/04/03 09:09:28;;;;;;;15.43;3.03;;;10.40;77.30;;;;;;5060011;28;20037;-68
2021/04/03 09:11:55;;;;;;;;;;;10.50;77.30;;;;;;5057037;28;20021;-68
2021/04/03 09:14:29;;;;;;;20.50;2.70;;;10.50;77.40;;;;;;5056107;28;20050;-77
2021/04/03 09:16:56;;;;;;;33.45;3.22;;;10.50;77.30;;;;;;5056824;28;20028;-67
2021/04/03 09:19:33;;;;;;;25.88;3.55;;;10.60;77.30;;;;;;5053188;28;20456;-68
2021/04/03 09:21:59;;;;;;;33.80;4.03;;;10.60;76.90;;;;;;5057316;28;20097;-68
2021/04/03 09:25:03;;;;;;;22.42;3.63;;;10.70;76.90;;;;;;5055817;28;20514;-67
2021/04/03 09:27:28;;;;;;;28.50;4.07;;;10.70;76.40;;;;;;5053329;28;20056;-68
2021/04/03 09:30:05;;;;;;;21.27;2.92;;;10.70;76.60;;;;;;5063436;28;20271;-72
2021/04/03 09:32:48;;;;;;;17.63;3.95;;;10.70;76.50;;;;;;5073696;28;20028;-69
2021/04/03 09:35:22;;;;;;;16.55;3.25;;;10.80;76.60;;;;;;5073931;28;20033;-68
2021/04/03 09:37:58;;;;;;;23.13;3.75;;;10.80;76.50;;;;;;5073366;28;20036;-68
2021/04/03 09:40:33;;;;;;;26.08;2.17;;;10.90;76.00;;;;;;5073751;28;20111;-68
2021/04/03 09:42:59;;;;;;;28.52;4.47;;;10.90;76.20;;;;;;5073406;28;20044;-69
2021/04/03 09:45:25;;;;;;;34.78;4.00;;;11.00;75.60;;;;;;5067838;28;20823;-68
2021/04/03 09:47:51;;;;;;;31.20;3.90;;;11.00;75.60;;;;;;5062019;28;20049;-68
2021/04/03 09:50:16;;;;;;;25.83;4.22;;;11.00;75.60;;;;;;5070531;28;20503;-68
2021/04/03 09:52:42;;;;;;;27.73;5.03;;;11.00;75.70;;;;;;5073527;28;20025;-68
2021/04/03 09:55:08;;;;;;;36.97;3.22;;;11.10;75.50;;;;;;5072811;28;20433;-68
2021/04/03 09:57:34;;;;;;;31.83;4.15;;;11.10;75.70;;;;;;5072647;28;20024;-68
2021/04/03 09:59:59;;;;;;;17.23;3.63;;;11.20;75.30;;;;;;5073341;28;20036;-69
2021/04/03 10:02:25;;;;;;;24.38;3.67;;;11.20;75.40;;;;;;5073152;28;20032;-68
2021/04/03 10:04:50;;;;;;;28.60;3.85;;;11.20;75.40;;;;;;5062720;28;20100;-68
2021/04/03 10:07:16;;;;;;;27.35;4.30;;;11.20;75.20;;;;;;5056006;28;20060;-68
2021/04/03 10:09:42;;;;;;;21.88;2.95;;;11.30;75.20;;;;;;5054106;28;20064;-70
2021/04/03 10:12:08;;;;;;;22.70;3.38;;;11.30;75.10;;;;;;5053004;28;20082;-71
2021/04/03 10:14:33;;;;;;;14.07;2.70;;;11.40;75.10;;;;;;5073036;28;20030;-71
2021/04/03 10:16:59;;;;;;;19.92;3.80;;;11.40;75.10;;;;;;5073254;28;20384;-70
2021/04/03 10:19:25;;;;;;;11.02;2.38;;;11.50;74.90;;;;;;5063342;28;20375;-70
2021/04/03 10:21:54;;;;;;;14.10;2.78;;;11.40;75.00;;;;;;5054025;28;20455;-68
2021/04/03 10:24:19;;;;;;;26.55;3.72;;;11.50;75.10;;;;;;5052845;28;20020;-67
2021/04/03 10:26:45;;;;;;;21.70;3.20;;;11.50;74.70;;;;;;5052323;28;20691;-66
2021/04/03 10:29:11;;;;;;;30.13;4.60;;;11.50;74.80;;;;;;5071770;28;20415;-66
2021/04/03 10:31:36;;;;;;;13.02;2.85;;;11.60;74.20;;;;;;5072945;28;20494;-66
2021/04/03 10:34:02;;;;;;;21.88;3.65;;;11.50;74.60;;;;;;5071622;28;20075;-66
2021/04/03 10:36:28;;;;;;;14.63;2.30;;;11.50;74.40;;;;;;5072650;28;20032;-67
2021/04/03 10:38:53;;;;;;;25.98;3.40;;;11.60;75.00;;;;;;5072793;28;20575;-66
2021/04/03 10:41:19;;;;;;;17.92;3.10;;;11.60;75.10;;;;;;5072142;28;20104;-67
2021/04/03 10:43:45;;;;;;;15.77;4.10;;;11.60;75.20;;;;;;5073171;28;20067;-71
2021/04/03 10:46:10;;;;;;;16.23;3.33;;;11.60;74.40;;;;;;5071568;28;20053;-67
2021/04/03 10:48:36;;;;;;;23.90;3.85;;;11.60;74.10;;;;;;5066190;28;20023;-67
2021/04/03 10:51:03;;;;;;;26.67;3.95;;;11.70;74.40;;;;;;5072596;28;20395;-66
2021/04/03 10:53:29;;;;;;;35.17;4.10;;;11.70;74.10;;;;;;5072480;28;20024;-67
2021/04/03 10:55:55;;;;;;;20.00;3.33;;;11.80;73.60;;;;;;5071946;28;20032;-69
2021/04/03 10:58:21;;;;;;;17.15;3.33;;;11.80;72.30;;;;;;5056018;28;20025;-71
2021/04/03 11:00:46;;;;;;;26.25;3.58;;;11.80;73.10;;;;;;5071930;28;20025;-71
2021/04/03 11:03:12;;;;;;;20.50;3.63;;;11.80;73.10;;;;;;5072676;28;20107;-68
2021/04/03 11:05:38;;;;;;;16.23;2.92;;;11.90;73.80;;;;;;5071903;28;20052;-75
2021/04/03 11:08:04;;;;;;;24.17;4.13;;;11.90;73.80;;;;;;5071491;28;20025;-75
2021/04/03 11:10:30;;;;;;;14.65;2.97;;;12.00;73.90;;;;;;5070478;28;20032;-68
2021/04/03 11:12:56;;;;;;;9.20;1.55;;;11.90;74.00;;;;;;5072006;28;20403;-69
2021/04/03 11:15:22;;;;;;;3.45;1.52;;;12.00;75.00;;;;;;5052928;28;20060;-69
2021/04/03 11:17:48;;;;;;;17.88;2.97;;;12.10;75.50;;;;;;5065818;28;20056;-68
2021/04/03 11:20:14;;;;;;;17.10;1.83;;;12.10;72.90;;;;;;5061993;28;20025;-69
2021/04/03 11:22:40;;;;;;;18.10;3.35;;;12.00;74.10;;;;;;5058562;28;20126;-69
2021/04/03 11:25:08;;;;;;;17.77;2.55;;;12.10;74.10;;;;;;5070561;28;20048;-69
2021/04/03 11:27:34;;;;;;;17.10;2.22;;;12.10;72.90;;;;;;5071661;28;20027;-69
2021/04/03 11:30:12;;;;;;;10.18;1.85;;;12.00;73.90;;;;;;5071383;28;20126;-69
2021/04/03 11:32:43;;;;;;;19.33;2.13;;;12.10;74.20;;;;;;5071982;28;20060;-69
2021/04/03 11:35:09;;;;;;;17.30;2.85;;;12.00;73.00;;;;;;5061351;28;20032;-69
2021/04/03 11:37:35;;;;;;;17.25;2.95;;;12.10;73.00;;;;;;5062286;28;20032;-74
2021/04/03 11:40:03;;;;;;;10.10;2.95;;;12.10;73.20;;;;;;5068617;28;20147;-68
2021/04/03 11:42:29;;;;;;;11.95;2.40;;;12.20;73.50;;;;;;5069152;28;20041;-68
2021/04/03 11:44:54;;;;;;;23.10;2.67;;;12.20;73.30;;;;;;5069238;28;20032;-67
2021/04/03 11:47:20;;;;;;;10.35;2.20;;;12.30;73.60;;;;;;5071413;28;20039;-67
2021/04/03 11:49:46;;;;;;;20.35;4.80;;;12.20;73.70;;;;;;5054620;28;20040;-68
2021/04/03 11:52:12;;;;;;;31.58;3.47;;;12.30;71.90;;;;;;5047975;28;20079;-68
2021/04/03 11:54:38;;;;;;;21.02;3.83;;;12.30;71.80;;;;;;5049461;28;20036;-67
2021/04/03 11:57:05;;;;;;;15.50;3.15;;;12.30;72.50;;;;;;5049178;28;20392;-68
2021/04/03 11:59:30;;;;;;;12.57;2.58;;;12.30;70.20;;;;;;5049837;28;20083;-68
2021/04/03 12:01:58;;;;;;;9.52;2.28;;;12.30;72.60;;;;;;5049720;28;20037;-68
2021/04/03 12:04:24;;;;;;;24.40;3.35;;;12.40;74.10;;;;;;5049056;28;20028;-67
2021/04/03 12:06:51;;;;;;;21.52;2.85;;;12.50;72.50;;;;;;5033570;28;20041;-68
2021/04/03 12:09:17;;;;;;;16.27;1.92;;;12.40;73.50;;;;;;5051505;28;20480;-68
2021/04/03 12:11:42;;;;;;;29.45;4.07;;;12.50;74.50;;;;;;5050860;28;20047;-68
2021/04/03 12:14:08;;;;;;;12.57;2.90;;;12.50;72.50;;;;;;5051964;28;20396;-68
2021/04/03 12:16:33;;;;;;;24.30;3.15;;;12.50;72.60;;;;;;5051686;28;20082;-68
2021/04/03 12:19:02;;;;;;;38.30;3.63;;;12.50;73.00;;;;;;5054091;28;20020;-68
2021/04/03 12:21:29;;;;;;;20.05;2.67;;;12.60;72.10;;;;;;5055627;28;20079;-68
2021/04/03 12:23:55;;;;;;;7.95;2.03;;;12.50;72.90;;;;;;5055626;28;20103;-68
2021/04/03 12:26:21;;;;;;;20.75;2.42;;;12.60;74.10;;;;;;5054557;28;20041;-68
2021/04/03 12:28:46;;;;;;;16.10;3.45;;;12.50;71.50;;;;;;5055465;28;20045;-67
2021/04/03 12:31:13;;;;;;;22.02;4.03;;;12.60;72.80;;;;;;5055878;28;20021;-68
2021/04/03 12:33:39;;;;;;;20.23;2.35;;;12.60;72.00;;;;;;5054688;28;20078;-68
2021/04/03 12:36:06;;;;;;;13.77;2.65;;;12.60;71.80;;;;;;5055550;28;20112;-68
2021/04/03 12:38:32;;;;;;;6.43;1.92;;;12.60;72.60;;;;;;5055294;28;20036;-69
2021/04/03 12:40:59;;;;;;;11.55;2.63;;;12.70;73.00;;;;;;5054609;28;20025;-67
2021/04/03 12:43:24;;;;;;;10.38;2.30;;;12.60;72.30;;;;;;5055224;28;20490;-67
2021/04/03 12:45:50;;;;;;;19.00;3.10;;;12.70;70.70;;;;;;5055115;28;20126;-67
2021/04/03 12:48:16;;;;;;;13.90;3.50;;;12.70;71.80;;;;;;5068396;28;20025;-68
2021/04/03 12:50:42;;;;;;;8.48;1.88;;;12.70;71.40;;;;;;5055672;28;20167;-67
2021/04/03 12:53:07;;;;;;;11.60;2.08;;;12.70;72.80;;;;;;5054988;28;20108;-67
2021/04/03 12:55:33;;;;;;;18.17;4.90;;;12.80;72.60;;;;;;5054385;28;20500;-67